createdAt,value
2022-08-26T06:46:44.328Z,97046.80
2022-08-26T06:49:13.395Z,97046.44
2022-08-26T06:51:41.448Z,97045.23
2022-08-26T06:54:10.318Z,97045.72
2022-08-26T06:56:41.782Z,97048.25
2022-08-26T06:59:11.894Z,97049.73
2022-08-26T07:01:46.757Z,97049.01
2022-08-26T07:04:16.655Z,97048.15
2022-08-26T07:06:53.561Z,97051.17
2022-08-26T07:09:24.284Z,97046.31
2022-08-26T07:11:53.745Z,97042.20
2022-08-26T07:14:22.596Z,97040.06
2022-08-26T07:16:51.141Z,97038.36
2022-08-26T07:19:29.861Z,97035.83
2022-08-26T07:22:04.024Z,97031.08
2022-08-26T07:24:35.174Z,97026.77
2022-08-26T07:27:06.530Z,97022.48
2022-08-26T07:29:36.021Z,97026.44
2022-08-26T07:32:04.789Z,97020.55
2022-08-26T07:34:33.146Z,97017.84
2022-08-26T07:37:01.557Z,97016.13
2022-08-26T07:39:31.886Z,97014.05
2022-08-26T07:42:07.600Z,97013.41
2022-08-26T07:44:37.754Z,97014.66
2022-08-26T07:47:10.568Z,97011.41
2022-08-26T07:49:57.762Z,97014.19
2022-08-26T07:52:30.428Z,97012.67
2022-08-26T07:55:00.485Z,97013.06
2022-08-26T07:57:30.989Z,97008.23
2022-08-26T07:59:59.583Z,97004.35
2022-08-26T08:02:29.206Z,97005.83
2022-08-26T08:04:58.641Z,97007.41
2022-08-26T08:07:38.698Z,97001.15
2022-08-26T08:10:20.840Z,97001.30
2022-08-26T08:12:50.122Z,96998.30
2022-08-26T08:15:21.820Z,96993.93
2022-08-26T08:17:51.482Z,96989.45
2022-08-26T08:20:22.192Z,96990.30
2022-08-26T08:22:52.836Z,96983.59
2022-08-26T08:25:22.904Z,96981.66
2022-08-26T08:27:51.279Z,96983.60
2022-08-26T08:30:23.099Z,96979.67
2022-08-26T08:32:52.500Z,96978.83
2022-08-26T08:35:22.809Z,96972.04
2022-08-26T08:37:54.362Z,96970.95
2022-08-26T08:40:25.593Z,96970.78
2022-08-26T08:43:06.525Z,96971.84
2022-08-26T08:45:58.145Z,96964.76
2022-08-26T08:48:32.250Z,96959.90
2022-08-26T08:51:18.958Z,96956.30
2022-08-26T08:53:49.729Z,96954.05
2022-08-26T08:56:36.828Z,96951.21
2022-08-26T08:59:14.305Z,96956.65
2022-08-26T09:01:47.641Z,96951.14
2022-08-26T09:04:58.142Z,96949.95
2022-08-26T09:07:37.534Z,96952.68
2022-08-26T09:10:05.761Z,96948.90
2022-08-26T09:12:34.798Z,96949.05
2022-08-26T09:15:18.972Z,96948.42
2022-08-26T09:17:55.928Z,96944.98
2022-08-26T09:20:23.921Z,96944.21
2022-08-26T09:22:52.016Z,96938.63
2022-08-26T09:25:20.359Z,96931.11
2022-08-26T09:27:51.056Z,96931.29
2022-08-26T09:30:26.872Z,96928.30
2022-08-26T09:33:01.396Z,96931.34
2022-08-26T09:35:33.626Z,96928.71
2022-08-26T09:38:02.791Z,96927.16
2022-08-26T09:40:36.350Z,96917.01
2022-08-26T09:43:22.325Z,96914.91
2022-08-26T09:46:17.707Z,96915.29
2022-08-26T09:48:45.943Z,96913.65
2022-08-26T09:51:23.385Z,96915.46
2022-08-26T09:54:05.733Z,96915.85
2022-08-26T09:56:38.753Z,96917.02
2022-08-26T09:59:12.155Z,96916.56
2022-08-26T10:01:45.288Z,96914.38
2022-08-26T10:04:21.020Z,96909.95
2022-08-26T10:07:01.994Z,96906.21
2022-08-26T10:09:40.706Z,96909.42
2022-08-26T10:12:16.020Z,96909.77
2022-08-26T10:15:03.621Z,96906.79
2022-08-26T10:17:38.393Z,96907.61
2022-08-26T10:20:24.111Z,96901.42
2022-08-26T10:23:23.308Z,96901.06
2022-08-26T10:25:59.216Z,96897.40
2022-08-26T10:28:37.303Z,96896.64
2022-08-26T10:31:28.503Z,96894.55
2022-08-26T10:34:00.388Z,96895.99
2022-08-26T10:37:14.208Z,96894.77
2022-08-26T10:39:51.860Z,96892.82
2022-08-26T10:42:40.658Z,96887.75
2022-08-26T10:45:15.119Z,96889.48
2022-08-26T10:47:46.366Z,96884.52
2022-08-26T10:50:19.037Z,96885.48
2022-08-26T10:53:26.512Z,96885.14
2022-08-26T10:56:15.681Z,96877.98
2022-08-26T10:59:38.384Z,96872.30
2022-08-26T11:02:37.160Z,96871.96
2022-08-26T11:05:16.206Z,96868.64
2022-08-26T11:07:48.551Z,96866.13
2022-08-26T11:10:17.416Z,96869.44
2022-08-26T11:12:49.171Z,96863.32
2022-08-26T11:15:24.663Z,96864.42
2022-08-26T11:17:52.863Z,96863.67
2022-08-26T11:20:33.064Z,96859.97
2022-08-26T11:23:13.343Z,96861.84
2022-08-26T11:25:57.192Z,96865.30
2022-08-26T11:28:45.629Z,96866.45
2022-08-26T11:31:24.626Z,96865.85
2022-08-26T11:34:07.233Z,96869.58
2022-08-26T11:36:47.818Z,96868.48
2022-08-26T11:39:52.669Z,96865.63
2022-08-26T11:42:44.383Z,96861.89
2022-08-26T11:45:24.597Z,96861.83
2022-08-26T11:47:54.895Z,96855.74
2022-08-26T11:50:26.727Z,96855.74
2022-08-26T11:53:06.326Z,96850.65
2022-08-26T11:55:41.950Z,96842.73
2022-08-26T11:58:13.134Z,96842.48
2022-08-26T12:00:45.700Z,96839.69
2022-08-26T12:03:19.596Z,96836.63
2022-08-26T12:05:50.104Z,96836.67
2022-08-26T12:08:21.743Z,96832.81
2022-08-26T12:10:49.774Z,96826.54
2022-08-26T12:13:26.321Z,96827.64
2022-08-26T12:15:58.284Z,96825.33
2022-08-26T12:18:30.718Z,96823.17
2022-08-26T12:21:16.649Z,96820.95
2022-08-26T12:23:51.050Z,96820.27
2022-08-26T12:26:30.075Z,96823.75
2022-08-26T12:29:09.981Z,96820.98
2022-08-26T12:31:49.935Z,96813.95
2022-08-26T12:34:19.518Z,96811.76
2022-08-26T12:36:55.660Z,96810.04
2022-08-26T12:39:37.921Z,96807.20
2022-08-26T12:42:24.263Z,96808.35
2022-08-26T12:45:04.058Z,96808.05
2022-08-26T12:47:43.961Z,96805.17
2022-08-26T12:50:33.518Z,96803.68
2022-08-26T12:53:10.361Z,96801.55
2022-08-26T12:55:53.009Z,96804.61
2022-08-26T12:58:25.977Z,96801.06
2022-08-26T13:00:53.957Z,96797.20
2022-08-26T13:03:31.050Z,96797.61
2022-08-26T13:06:08.872Z,96793.11
2022-08-26T13:08:53.098Z,96794.80
2022-08-26T13:11:24.972Z,96791.54
2022-08-26T13:14:15.868Z,96788.68
2022-08-26T13:16:50.006Z,96790.60
2022-08-26T13:19:25.458Z,96790.58
2022-08-26T13:21:56.494Z,96785.61
2022-08-26T13:24:38.713Z,96786.19
2022-08-26T13:27:09.138Z,96788.67
2022-08-26T13:29:37.204Z,96782.95
2022-08-26T13:32:06.991Z,96777.13
2022-08-26T13:34:36.876Z,96774.86
2022-08-26T13:37:05.598Z,96773.82
2022-08-26T13:39:33.829Z,96773.21
2022-08-26T13:42:01.843Z,96771.73
2022-08-26T13:44:29.796Z,96769.80
2022-08-26T13:46:57.749Z,96769.64
2022-08-26T13:49:25.751Z,96769.05
2022-08-26T13:51:53.680Z,96770.04
2022-08-26T13:54:22.035Z,96774.20
2022-08-26T13:56:49.958Z,96776.27
2022-08-26T13:59:17.982Z,96778.56
2022-08-26T14:01:45.957Z,96775.75
2022-08-26T14:04:14.016Z,96774.73
2022-08-26T14:06:42.600Z,96769.63
2022-08-26T14:09:11.435Z,96767.55
2022-08-26T14:11:50.684Z,96766.17
2022-08-26T14:14:22.898Z,96768.12
2022-08-26T14:16:58.727Z,96768.79
2022-08-26T14:19:31.360Z,96761.21
2022-08-26T14:22:01.511Z,96759.92
2022-08-26T14:24:30.255Z,96756.58
2022-08-26T14:26:58.666Z,96756.89
2022-08-26T14:29:26.929Z,96754.70
2022-08-26T14:31:56.464Z,96749.83
2022-08-26T14:34:25.327Z,96749.59
2022-08-26T14:36:53.630Z,96747.68
2022-08-26T14:39:22.389Z,96748.09
2022-08-26T14:41:54.967Z,96746.20
2022-08-26T14:44:30.626Z,96739.60
2022-08-26T14:47:02.083Z,96741.56
2022-08-26T14:49:31.546Z,96744.76
2022-08-26T14:51:59.724Z,96742.05
2022-08-26T14:54:29.670Z,96743.95
2022-08-26T14:57:02.337Z,96742.08
2022-08-26T14:59:40.238Z,96740.40
2022-08-26T15:02:13.660Z,96741.27
2022-08-26T15:04:51.114Z,96745.11
2022-08-26T15:07:21.124Z,96742.42
2022-08-26T15:09:50.044Z,96741.16
2022-08-26T15:12:18.193Z,96737.21
2022-08-26T15:14:51.776Z,96736.50
2022-08-26T15:17:21.344Z,96738.52
2022-08-26T15:19:54.539Z,96735.55
2022-08-26T15:22:29.425Z,96733.84
2022-08-26T15:24:59.843Z,96735.05
2022-08-26T15:27:28.606Z,96729.71
2022-08-26T15:29:56.852Z,96730.17
2022-08-26T15:32:25.134Z,96735.91
2022-08-26T15:34:53.345Z,96736.45
2022-08-26T15:37:21.421Z,96735.31
2022-08-26T15:39:49.673Z,96733.94
2022-08-26T15:42:17.886Z,96733.25
2022-08-26T15:44:46.744Z,96728.68
2022-08-26T15:47:15.178Z,96728.69
2022-08-26T15:49:43.951Z,96728.83
2022-08-26T15:52:12.047Z,96729.63
2022-08-26T15:54:40.150Z,96729.21
2022-08-26T15:57:11.481Z,96728.35
2022-08-26T15:59:41.310Z,96728.55
2022-08-26T16:02:09.933Z,96726.99
2022-08-26T16:04:38.071Z,96723.61
2022-08-26T16:07:06.360Z,96725.45
2022-08-26T16:09:34.669Z,96721.79
2022-08-26T16:12:03.340Z,96723.77
2022-08-26T16:14:31.465Z,96720.41
2022-08-26T16:16:59.583Z,96719.34
2022-08-26T16:19:27.655Z,96721.05
2022-08-26T16:21:55.585Z,96720.93
2022-08-26T16:24:28.409Z,96722.56
2022-08-26T16:26:58.291Z,96719.23
2022-08-26T16:29:27.307Z,96718.94
2022-08-26T16:31:55.367Z,96719.92
2022-08-26T16:34:23.857Z,96719.06
2022-08-26T16:36:52.371Z,96719.31
2022-08-26T16:39:20.384Z,96722.82
2022-08-26T16:41:48.416Z,96721.64
2022-08-26T16:44:16.935Z,96718.45
2022-08-26T16:46:45.916Z,96720.55
2022-08-26T16:49:14.394Z,96721.28
2022-08-26T16:51:42.420Z,96716.04
2022-08-26T16:54:10.475Z,96713.79
2022-08-26T16:56:39.158Z,96715.47
2022-08-26T16:59:11.637Z,96717.61
2022-08-26T17:01:42.903Z,96719.13
2022-08-26T17:04:10.913Z,96719.97
2022-08-26T17:06:38.899Z,96724.79
2022-08-26T17:09:07.520Z,96726.35
2022-08-26T17:11:35.742Z,96730.66
2022-08-26T17:14:04.904Z,96729.54
2022-08-26T17:16:33.069Z,96736.23
2022-08-26T17:19:02.942Z,96733.89
2022-08-26T17:21:36.714Z,96734.77
2022-08-26T17:24:06.094Z,96733.05
2022-08-26T17:26:34.790Z,96738.23
2022-08-26T17:29:02.880Z,96735.52
2022-08-26T17:31:32.791Z,96736.45
2022-08-26T17:34:00.911Z,96736.64
2022-08-26T17:36:29.120Z,96736.23
2022-08-26T17:38:58.638Z,96737.15
2022-08-26T17:41:27.391Z,96737.70
2022-08-26T17:43:56.244Z,96742.80
2022-08-26T17:46:24.760Z,96742.80
2022-08-26T17:48:55.813Z,96747.29
2022-08-26T17:51:24.605Z,96747.16
2022-08-26T17:53:54.050Z,96749.00
2022-08-26T17:56:29.360Z,96752.27
2022-08-26T17:59:02.504Z,96752.42
2022-08-26T18:01:32.190Z,96751.33
2022-08-26T18:04:01.045Z,96754.41
2022-08-26T18:06:30.901Z,96754.21
2022-08-26T18:09:00.649Z,96752.48
2022-08-26T18:11:30.043Z,96749.61
2022-08-26T18:13:59.269Z,96753.42
2022-08-26T18:16:30.230Z,96751.52
2022-08-26T18:18:59.658Z,96754.77
2022-08-26T18:21:28.136Z,96753.31
2022-08-26T18:23:56.493Z,96751.47
2022-08-26T18:26:28.533Z,96749.81
2022-08-26T18:28:57.690Z,96748.62
2022-08-26T18:31:26.828Z,96752.15
2022-08-26T18:33:55.083Z,96750.98
2022-08-26T18:36:26.883Z,96745.38
2022-08-26T18:38:56.192Z,96741.46
2022-08-26T18:41:26.447Z,96747.18
2022-08-26T18:43:55.822Z,96750.15
2022-08-26T18:46:26.269Z,96750.94
2022-08-26T18:48:56.250Z,96753.93
2022-08-26T18:51:29.738Z,96752.40
2022-08-26T18:53:59.216Z,96745.30
2022-08-26T18:56:28.773Z,96747.09
2022-08-26T18:58:56.902Z,96747.80
2022-08-26T19:01:27.695Z,96749.60
2022-08-26T19:03:58.447Z,96750.04
2022-08-26T19:06:28.677Z,96754.41
2022-08-26T19:08:57.946Z,96750.13
2022-08-26T19:11:31.672Z,96751.98
2022-08-26T19:14:10.897Z,96748.63
2022-08-26T19:16:39.207Z,96747.34
2022-08-26T19:19:08.072Z,96749.50
2022-08-26T19:21:38.284Z,96748.64
2022-08-26T19:24:15.526Z,96750.29
2022-08-26T19:26:45.951Z,96753.38
2022-08-26T19:29:15.697Z,96751.84
2022-08-26T19:31:44.161Z,96754.21
2022-08-26T19:34:18.311Z,96759.19
2022-08-26T19:36:49.416Z,96758.22
2022-08-26T19:39:17.522Z,96754.96
2022-08-26T19:41:45.837Z,96756.09
2022-08-26T19:44:36.422Z,96753.58
2022-08-26T19:47:07.314Z,96755.96
2022-08-26T19:49:36.516Z,96757.39
2022-08-26T19:52:06.538Z,96757.60
2022-08-26T19:54:36.294Z,96761.28
2022-08-26T19:57:04.916Z,96761.82
2022-08-26T19:59:33.235Z,96762.47
2022-08-26T20:02:02.227Z,96762.93
2022-08-26T20:04:31.851Z,96762.16
2022-08-26T20:07:01.315Z,96764.17
2022-08-26T20:09:34.206Z,96768.02
2022-08-26T20:12:03.253Z,96766.50
2022-08-26T20:14:31.564Z,96766.05
2022-08-26T20:17:01.484Z,96766.39
2022-08-26T20:19:48.133Z,96770.71
2022-08-26T20:22:17.154Z,96771.04
2022-08-26T20:24:46.258Z,96768.83
2022-08-26T20:27:15.636Z,96773.98
2022-08-26T20:29:44.005Z,96770.73
2022-08-26T20:32:12.318Z,96771.85
2022-08-26T20:34:40.483Z,96774.23
2022-08-26T20:37:08.582Z,96779.84
2022-08-26T20:39:36.862Z,96783.05
2022-08-26T20:42:06.913Z,96780.23
2022-08-26T20:44:54.843Z,96776.21
2022-08-26T20:47:23.423Z,96775.65
2022-08-26T20:49:52.461Z,96773.13
2022-08-26T20:52:20.892Z,96777.39
2022-08-26T20:54:48.981Z,96778.23
2022-08-26T20:57:17.062Z,96785.93
2022-08-26T20:59:45.053Z,96789.92
2022-08-26T21:02:13.057Z,96791.50
2022-08-26T21:04:41.230Z,96789.47
2022-08-26T21:07:09.278Z,96791.35
2022-08-26T21:09:37.347Z,96790.14
2022-08-26T21:12:06.629Z,96794.64
2022-08-26T21:14:34.679Z,96793.05
2022-08-26T21:17:02.824Z,96795.83
2022-08-26T21:19:31.161Z,96795.44
2022-08-26T21:21:59.663Z,96792.45
2022-08-26T21:24:27.757Z,96793.82
2022-08-26T21:26:55.727Z,96792.36
2022-08-26T21:29:23.790Z,96793.99
2022-08-26T21:31:51.890Z,96796.73
2022-08-26T21:34:20.095Z,96789.37
2022-08-26T21:36:49.635Z,96790.05
2022-08-26T21:39:17.869Z,96785.76
2022-08-26T21:41:47.356Z,96786.02
2022-08-26T21:44:17.206Z,96787.30
2022-08-26T21:46:46.602Z,96789.19
2022-08-26T21:49:16.103Z,96788.71
2022-08-26T21:51:47.529Z,96790.65
2022-08-26T21:54:18.188Z,96794.92
2022-08-26T21:56:47.431Z,96798.75
2022-08-26T21:59:18.377Z,96800.02
2022-08-26T22:01:47.830Z,96798.46
2022-08-26T22:04:16.574Z,96794.27
2022-08-26T22:06:49.928Z,96801.70
2022-08-26T22:09:25.279Z,96801.00
2022-08-26T22:11:56.936Z,96805.39
2022-08-26T22:14:30.395Z,96805.97
2022-08-26T22:16:59.997Z,96802.09
2022-08-26T22:19:31.905Z,96800.33
2022-08-26T22:22:03.753Z,96798.08
2022-08-26T22:24:31.720Z,96800.30
2022-08-26T22:26:59.740Z,96794.91
2022-08-26T22:29:27.852Z,96791.41
2022-08-26T22:31:57.297Z,96792.00
2022-08-26T22:34:25.713Z,96787.01
2022-08-26T22:36:54.246Z,96786.17
2022-08-26T22:39:25.386Z,96787.25
2022-08-26T22:41:54.620Z,96783.70
2022-08-26T22:44:22.724Z,96789.30
2022-08-26T22:46:54.305Z,96784.63
2022-08-26T22:49:23.822Z,96782.85
2022-08-26T22:51:51.870Z,96788.11
2022-08-26T22:54:20.009Z,96789.78
2022-08-26T22:56:48.802Z,96792.46
2022-08-26T22:59:16.970Z,96796.98
2022-08-26T23:01:46.945Z,96793.48
2022-08-26T23:04:15.177Z,96791.29
2022-08-26T23:06:47.546Z,96794.41
2022-08-26T23:09:18.601Z,96796.35
2022-08-26T23:11:48.625Z,96799.68
2022-08-26T23:14:18.765Z,96805.01
2022-08-26T23:16:47.738Z,96807.35
2022-08-26T23:19:19.111Z,96807.36
2022-08-26T23:21:49.701Z,96806.02
2022-08-26T23:24:18.528Z,96804.02
2022-08-26T23:26:47.121Z,96803.11
2022-08-26T23:29:16.124Z,96803.31
2022-08-26T23:31:44.966Z,96798.25
2022-08-26T23:34:33.271Z,96798.68
2022-08-26T23:37:02.171Z,96792.54
2022-08-26T23:39:36.336Z,96794.90
2022-08-26T23:42:06.257Z,96792.58
2022-08-26T23:44:35.103Z,96791.17
2022-08-26T23:47:03.660Z,96788.04
2022-08-26T23:49:32.882Z,96788.79
2022-08-26T23:52:19.680Z,96786.36
2022-08-26T23:54:48.783Z,96783.27
2022-08-26T23:57:18.822Z,96784.15
2022-08-26T23:59:48.714Z,96783.39
